sensor_id;sensor_type;location;lat;lon;timestamp;P1;durP1;ratioP1;P2;durP2;ratioP2
3068;SDS011;1545;51.728;8.796;2023-03-14T00:01:08;7.57;;;2.83;;
3068;SDS011;1545;51.728;8.796;2023-03-14T00:03:38;5.50;;;2.63;;
3068;SDS011;1545;51.728;8.796;2023-03-14T00:06:04;5.53;;;2.30;;
3068;SDS011;1545;51.728;8.796;2023-03-14T00:08:31;8.33;;;3.27;;
3068;SDS011;1545;51.728;8.796;2023-03-14T00:10:56;11.13;;;3.13;;
3068;SDS011;1545;51.728;8.796;2023-03-14T00:13:25;12.53;;;3.27;;
3068;SDS011;1545;51.728;8.796;2023-03-14T00:15:50;10.53;;;3.00;;
3068;SDS011;1545;51.728;8.796;2023-03-14T00:18:16;7.60;;;3.37;;
3068;SDS011;1545;51.728;8.796;2023-03-14T00:20:41;5.87;;;3.00;;
3068;SDS011;1545;51.728;8.796;2023-03-14T00:23:07;5.13;;;2.27;;
3068;SDS011;1545;51.728;8.796;2023-03-14T00:25:32;9.63;;;2.60;;
3068;SDS011;1545;51.728;8.796;2023-03-14T00:27:57;7.93;;;3.50;;
3068;SDS011;1545;51.728;8.796;2023-03-14T00:30:23;7.73;;;3.20;;
3068;SDS011;1545;51.728;8.796;2023-03-14T00:32:48;9.00;;;3.30;;
3068;SDS011;1545;51.728;8.796;2023-03-14T00:35:14;5.73;;;2.93;;
3068;SDS011;1545;51.728;8.796;2023-03-14T00:37:40;10.13;;;3.10;;
3068;SDS011;1545;51.728;8.796;2023-03-14T00:40:06;10.60;;;3.27;;
3068;SDS011;1545;51.728;8.796;2023-03-14T00:42:34;8.30;;;3.17;;
3068;SDS011;1545;51.728;8.796;2023-03-14T00:45:00;11.03;;;3.27;;
3068;SDS011;1545;51.728;8.796;2023-03-14T00:47:25;7.77;;;3.43;;
3068;SDS011;1545;51.728;8.796;2023-03-14T00:49:50;12.80;;;3.77;;
3068;SDS011;1545;51.728;8.796;2023-03-14T00:52:16;13.50;;;3.73;;
3068;SDS011;1545;51.728;8.796;2023-03-14T00:54:41;7.33;;;2.93;;
3068;SDS011;1545;51.728;8.796;2023-03-14T00:57:07;11.20;;;3.30;;
3068;SDS011;1545;51.728;8.796;2023-03-14T00:59:32;9.30;;;2.90;;
3068;SDS011;1545;51.728;8.796;2023-03-14T01:01:58;8.03;;;3.10;;
3068;SDS011;1545;51.728;8.796;2023-03-14T01:04:23;9.43;;;3.37;;
3068;SDS011;1545;51.728;8.796;2023-03-14T01:06:49;9.17;;;3.60;;
3068;SDS011;1545;51.728;8.796;2023-03-14T01:09:14;13.57;;;3.60;;
3068;SDS011;1545;51.728;8.796;2023-03-14T01:11:42;8.67;;;3.20;;
3068;SDS011;1545;51.728;8.796;2023-03-14T01:14:11;7.87;;;3.33;;
3068;SDS011;1545;51.728;8.796;2023-03-14T01:16:37;7.43;;;3.00;;
3068;SDS011;1545;51.728;8.796;2023-03-14T01:19:02;10.30;;;3.67;;
3068;SDS011;1545;51.728;8.796;2023-03-14T01:21:29;9.83;;;2.80;;
3068;SDS011;1545;51.728;8.796;2023-03-14T01:23:58;10.00;;;3.60;;
3068;SDS011;1545;51.728;8.796;2023-03-14T01:26:25;8.37;;;2.80;;
3068;SDS011;1545;51.728;8.796;2023-03-14T01:28:54;8.60;;;3.03;;
3068;SDS011;1545;51.728;8.796;2023-03-14T01:31:20;10.37;;;3.30;;
3068;SDS011;1545;51.728;8.796;2023-03-14T01:33:46;7.77;;;2.77;;
3068;SDS011;1545;51.728;8.796;2023-03-14T01:36:11;9.23;;;2.93;;
3068;SDS011;1545;51.728;8.796;2023-03-14T01:38:38;7.10;;;2.87;;
3068;SDS011;1545;51.728;8.796;2023-03-14T01:41:05;10.17;;;3.30;;
3068;SDS011;1545;51.728;8.796;2023-03-14T01:43:31;9.53;;;3.40;;
3068;SDS011;1545;51.728;8.796;2023-03-14T01:48:35;8.50;;;2.83;;
3068;SDS011;1545;51.728;8.796;2023-03-14T01:51:06;13.83;;;3.57;;
3068;SDS011;1545;51.728;8.796;2023-03-14T01:53:36;9.40;;;2.97;;
3068;SDS011;1545;51.728;8.796;2023-03-14T01:56:03;12.50;;;3.10;;
3068;SDS011;1545;51.728;8.796;2023-03-14T01:58:30;13.00;;;3.13;;
3068;SDS011;1545;51.728;8.796;2023-03-14T02:00:59;8.80;;;3.00;;
3068;SDS011;1545;51.728;8.796;2023-03-14T02:03:26;9.63;;;2.87;;
3068;SDS011;1545;51.728;8.796;2023-03-14T02:05:56;6.93;;;2.70;;
3068;SDS011;1545;51.728;8.796;2023-03-14T02:08:29;9.43;;;2.77;;
3068;SDS011;1545;51.728;8.796;2023-03-14T02:10:56;9.43;;;2.60;;
3068;SDS011;1545;51.728;8.796;2023-03-14T02:13:22;9.87;;;2.83;;
3068;SDS011;1545;51.728;8.796;2023-03-14T02:15:47;6.83;;;2.77;;
3068;SDS011;1545;51.728;8.796;2023-03-14T02:18:13;9.70;;;3.00;;
3068;SDS011;1545;51.728;8.796;2023-03-14T02:21:27;7.77;;;2.80;;
3068;SDS011;1545;51.728;8.796;2023-03-14T02:23:40;8.90;;;3.10;;
3068;SDS011;1545;51.728;8.796;2023-03-14T02:26:35;8.17;;;2.87;;
3068;SDS011;1545;51.728;8.796;2023-03-14T02:29:03;8.30;;;2.63;;
3068;SDS011;1545;51.728;8.796;2023-03-14T02:31:28;8.37;;;2.73;;
3068;SDS011;1545;51.728;8.796;2023-03-14T02:33:54;6.67;;;2.70;;
3068;SDS011;1545;51.728;8.796;2023-03-14T02:36:21;10.80;;;2.60;;
3068;SDS011;1545;51.728;8.796;2023-03-14T02:39:22;8.60;;;2.70;;
3068;SDS011;1545;51.728;8.796;2023-03-14T02:41:44;12.60;;;2.73;;
3068;SDS011;1545;51.728;8.796;2023-03-14T02:44:11;6.13;;;2.90;;
3068;SDS011;1545;51.728;8.796;2023-03-14T02:46:36;13.50;;;3.17;;
3068;SDS011;1545;51.728;8.796;2023-03-14T02:49:03;10.10;;;2.97;;
3068;SDS011;1545;51.728;8.796;2023-03-14T02:51:32;6.00;;;2.80;;
3068;SDS011;1545;51.728;8.796;2023-03-14T02:53:58;10.20;;;2.77;;
3068;SDS011;1545;51.728;8.796;2023-03-14T02:56:23;7.03;;;2.43;;
3068;SDS011;1545;51.728;8.796;2023-03-14T02:58:49;7.30;;;2.20;;
3068;SDS011;1545;51.728;8.796;2023-03-14T03:01:15;6.63;;;1.77;;
3068;SDS011;1545;51.728;8.796;2023-03-14T03:03:40;4.53;;;1.70;;
3068;SDS011;1545;51.728;8.796;2023-03-14T03:06:06;8.60;;;2.17;;
3068;SDS011;1545;51.728;8.796;2023-03-14T03:08:32;6.90;;;2.33;;
3068;SDS011;1545;51.728;8.796;2023-03-14T03:10:58;7.07;;;2.43;;
3068;SDS011;1545;51.728;8.796;2023-03-14T03:13:23;4.10;;;1.60;;
3068;SDS011;1545;51.728;8.796;2023-03-14T03:15:49;4.93;;;1.90;;
3068;SDS011;1545;51.728;8.796;2023-03-14T03:18:14;7.60;;;2.20;;
3068;SDS011;1545;51.728;8.796;2023-03-14T03:20:40;5.90;;;1.97;;
3068;SDS011;1545;51.728;8.796;2023-03-14T03:23:05;7.93;;;1.90;;
3068;SDS011;1545;51.728;8.796;2023-03-14T03:25:31;4.63;;;1.73;;
3068;SDS011;1545;51.728;8.796;2023-03-14T03:27:57;3.73;;;1.70;;
3068;SDS011;1545;51.728;8.796;2023-03-14T03:30:22;3.07;;;1.50;;
3068;SDS011;1545;51.728;8.796;2023-03-14T03:32:48;5.90;;;1.83;;
3068;SDS011;1545;51.728;8.796;2023-03-14T03:35:13;3.53;;;1.60;;
3068;SDS011;1545;51.728;8.796;2023-03-14T03:37:39;12.93;;;1.80;;
3068;SDS011;1545;51.728;8.796;2023-03-14T03:40:05;7.33;;;1.83;;
3068;SDS011;1545;51.728;8.796;2023-03-14T03:42:32;7.37;;;1.97;;
3068;SDS011;1545;51.728;8.796;2023-03-14T03:44:58;6.27;;;1.77;;
3068;SDS011;1545;51.728;8.796;2023-03-14T03:47:24;6.30;;;2.20;;
3068;SDS011;1545;51.728;8.796;2023-03-14T03:49:50;4.67;;;1.67;;
3068;SDS011;1545;51.728;8.796;2023-03-14T03:52:16;2.70;;;1.50;;
3068;SDS011;1545;51.728;8.796;2023-03-14T03:54:41;4.70;;;1.73;;
3068;SDS011;1545;51.728;8.796;2023-03-14T03:57:07;5.90;;;1.70;;
3068;SDS011;1545;51.728;8.796;2023-03-14T03:59:32;2.07;;;1.53;;
3068;SDS011;1545;51.728;8.796;2023-03-14T04:01:58;5.77;;;1.40;;
3068;SDS011;1545;51.728;8.796;2023-03-14T04:04:23;3.60;;;1.47;;
3068;SDS011;1545;51.728;8.796;2023-03-14T04:06:49;4.73;;;1.70;;
3068;SDS011;1545;51.728;8.796;2023-03-14T04:09:14;5.00;;;1.50;;
3068;SDS011;1545;51.728;8.796;2023-03-14T04:11:40;2.23;;;1.40;;
3068;SDS011;1545;51.728;8.796;2023-03-14T04:14:06;2.83;;;1.47;;
3068;SDS011;1545;51.728;8.796;2023-03-14T04:16:32;2.03;;;1.30;;
3068;SDS011;1545;51.728;8.796;2023-03-14T04:18:58;7.97;;;1.80;;
3068;SDS011;1545;51.728;8.796;2023-03-14T04:21:23;4.53;;;1.57;;
3068;SDS011;1545;51.728;8.796;2023-03-14T04:23:49;2.70;;;1.40;;
3068;SDS011;1545;51.728;8.796;2023-03-14T04:26:15;4.30;;;1.80;;
3068;SDS011;1545;51.728;8.796;2023-03-14T04:28:40;3.63;;;1.70;;
3068;SDS011;1545;51.728;8.796;2023-03-14T04:31:07;6.37;;;2.30;;
3068;SDS011;1545;51.728;8.796;2023-03-14T04:33:37;7.50;;;1.70;;
3068;SDS011;1545;51.728;8.796;2023-03-14T04:36:03;4.77;;;1.50;;
3068;SDS011;1545;51.728;8.796;2023-03-14T04:38:30;8.20;;;1.73;;
3068;SDS011;1545;51.728;8.796;2023-03-14T04:40:56;4.23;;;1.77;;
3068;SDS011;1545;51.728;8.796;2023-03-14T04:43:22;5.07;;;1.70;;
3068;SDS011;1545;51.728;8.796;2023-03-14T04:45:47;7.43;;;2.00;;
3068;SDS011;1545;51.728;8.796;2023-03-14T04:48:13;3.13;;;1.63;;
3068;SDS011;1545;51.728;8.796;2023-03-14T04:50:39;5.43;;;1.80;;
3068;SDS011;1545;51.728;8.796;2023-03-14T04:53:05;4.87;;;1.77;;
3068;SDS011;1545;51.728;8.796;2023-03-14T04:55:31;5.77;;;1.87;;
3068;SDS011;1545;51.728;8.796;2023-03-14T04:57:58;8.47;;;1.97;;
3068;SDS011;1545;51.728;8.796;2023-03-14T05:00:24;5.60;;;1.80;;
3068;SDS011;1545;51.728;8.796;2023-03-14T05:02:49;8.70;;;2.00;;
3068;SDS011;1545;51.728;8.796;2023-03-14T05:05:15;4.57;;;2.10;;
3068;SDS011;1545;51.728;8.796;2023-03-14T05:07:41;6.10;;;2.10;;
3068;SDS011;1545;51.728;8.796;2023-03-14T05:10:06;3.57;;;1.80;;
3068;SDS011;1545;51.728;8.796;2023-03-14T05:12:32;7.23;;;2.30;;
3068;SDS011;1545;51.728;8.796;2023-03-14T05:14:58;6.77;;;2.27;;
3068;SDS011;1545;51.728;8.796;2023-03-14T05:17:23;10.23;;;2.17;;
3068;SDS011;1545;51.728;8.796;2023-03-14T05:19:49;6.53;;;2.40;;
3068;SDS011;1545;51.728;8.796;2023-03-14T05:22:14;4.03;;;2.00;;
3068;SDS011;1545;51.728;8.796;2023-03-14T05:24:40;8.73;;;2.03;;
3068;SDS011;1545;51.728;8.796;2023-03-14T05:27:06;6.77;;;2.57;;
3068;SDS011;1545;51.728;8.796;2023-03-14T05:29:31;12.70;;;2.47;;
3068;SDS011;1545;51.728;8.796;2023-03-14T05:31:57;7.43;;;2.87;;
3068;SDS011;1545;51.728;8.796;2023-03-14T05:34:22;8.93;;;2.90;;
3068;SDS011;1545;51.728;8.796;2023-03-14T05:36:48;13.43;;;3.10;;
3068;SDS011;1545;51.728;8.796;2023-03-14T05:39:13;11.23;;;2.53;;
3068;SDS011;1545;51.728;8.796;2023-03-14T05:41:39;6.90;;;2.90;;
3068;SDS011;1545;51.728;8.796;2023-03-14T05:44:04;12.47;;;2.83;;
3068;SDS011;1545;51.728;8.796;2023-03-14T05:46:30;7.53;;;2.80;;
3068;SDS011;1545;51.728;8.796;2023-03-14T05:49:00;11.67;;;3.13;;
3068;SDS011;1545;51.728;8.796;2023-03-14T05:51:26;15.03;;;3.33;;
3068;SDS011;1545;51.728;8.796;2023-03-14T05:53:51;16.80;;;3.40;;
3068;SDS011;1545;51.728;8.796;2023-03-14T05:56:17;9.80;;;3.57;;
3068;SDS011;1545;51.728;8.796;2023-03-14T05:58:42;15.17;;;3.23;;
3068;SDS011;1545;51.728;8.796;2023-03-14T06:01:08;12.57;;;3.40;;
3068;SDS011;1545;51.728;8.796;2023-03-14T06:03:33;13.87;;;3.20;;
3068;SDS011;1545;51.728;8.796;2023-03-14T06:06:00;12.10;;;3.03;;
3068;SDS011;1545;51.728;8.796;2023-03-14T06:08:26;14.13;;;3.67;;
3068;SDS011;1545;51.728;8.796;2023-03-14T06:10:52;12.30;;;3.50;;
3068;SDS011;1545;51.728;8.796;2023-03-14T06:13:18;13.47;;;3.37;;
3068;SDS011;1545;51.728;8.796;2023-03-14T06:15:43;12.47;;;3.27;;
3068;SDS011;1545;51.728;8.796;2023-03-14T06:18:09;12.67;;;3.50;;
3068;SDS011;1545;51.728;8.796;2023-03-14T06:20:38;11.60;;;3.70;;
3068;SDS011;1545;51.728;8.796;2023-03-14T06:23:04;13.57;;;4.10;;
3068;SDS011;1545;51.728;8.796;2023-03-14T06:25:31;19.00;;;4.13;;
3068;SDS011;1545;51.728;8.796;2023-03-14T06:27:57;15.57;;;3.40;;
3068;SDS011;1545;51.728;8.796;2023-03-14T06:30:22;14.90;;;3.97;;
3068;SDS011;1545;51.728;8.796;2023-03-14T06:32:48;15.17;;;3.80;;
3068;SDS011;1545;51.728;8.796;2023-03-14T06:35:13;13.17;;;3.70;;
3068;SDS011;1545;51.728;8.796;2023-03-14T06:37:39;12.33;;;3.07;;
3068;SDS011;1545;51.728;8.796;2023-03-14T06:40:04;11.77;;;3.53;;
3068;SDS011;1545;51.728;8.796;2023-03-14T06:42:32;11.77;;;2.83;;
3068;SDS011;1545;51.728;8.796;2023-03-14T06:44:58;10.97;;;3.13;;
3068;SDS011;1545;51.728;8.796;2023-03-14T06:47:23;14.97;;;3.17;;
3068;SDS011;1545;51.728;8.796;2023-03-14T06:49:49;11.77;;;2.90;;
3068;SDS011;1545;51.728;8.796;2023-03-14T06:52:14;10.93;;;3.13;;
3068;SDS011;1545;51.728;8.796;2023-03-14T06:54:40;7.77;;;2.77;;
3068;SDS011;1545;51.728;8.796;2023-03-14T06:57:05;11.20;;;2.43;;
3068;SDS011;1545;51.728;8.796;2023-03-14T06:59:31;9.77;;;2.60;;
3068;SDS011;1545;51.728;8.796;2023-03-14T07:01:56;6.33;;;2.60;;
3068;SDS011;1545;51.728;8.796;2023-03-14T07:04:22;12.80;;;2.73;;
3068;SDS011;1545;51.728;8.796;2023-03-14T07:06:47;19.20;;;6.13;;
3068;SDS011;1545;51.728;8.796;2023-03-14T07:09:13;6.63;;;2.63;;
3068;SDS011;1545;51.728;8.796;2023-03-14T07:11:41;7.33;;;2.13;;
3068;SDS011;1545;51.728;8.796;2023-03-14T07:14:07;6.43;;;2.03;;
3068;SDS011;1545;51.728;8.796;2023-03-14T07:16:33;4.13;;;1.80;;
3068;SDS011;1545;51.728;8.796;2023-03-14T07:18:59;5.57;;;2.00;;
3068;SDS011;1545;51.728;8.796;2023-03-14T07:21:25;2.93;;;1.50;;
3068;SDS011;1545;51.728;8.796;2023-03-14T07:23:51;4.67;;;1.83;;
3068;SDS011;1545;51.728;8.796;2023-03-14T07:26:16;2.50;;;1.60;;
3068;SDS011;1545;51.728;8.796;2023-03-14T07:28:42;2.43;;;1.37;;
3068;SDS011;1545;51.728;8.796;2023-03-14T07:31:07;4.37;;;1.77;;
3068;SDS011;1545;51.728;8.796;2023-03-14T07:33:34;4.00;;;1.70;;
3068;SDS011;1545;51.728;8.796;2023-03-14T07:36:00;4.87;;;1.97;;
3068;SDS011;1545;51.728;8.796;2023-03-14T07:38:25;5.17;;;1.80;;
3068;SDS011;1545;51.728;8.796;2023-03-14T07:40:57;5.90;;;1.83;;
3068;SDS011;1545;51.728;8.796;2023-03-14T07:43:26;5.60;;;1.40;;
3068;SDS011;1545;51.728;8.796;2023-03-14T07:45:51;4.07;;;1.90;;
3068;SDS011;1545;51.728;8.796;2023-03-14T07:48:17;4.13;;;1.70;;
3068;SDS011;1545;51.728;8.796;2023-03-14T07:50:42;3.00;;;1.50;;
3068;SDS011;1545;51.728;8.796;2023-03-14T07:53:08;3.37;;;1.60;;
3068;SDS011;1545;51.728;8.796;2023-03-14T07:55:33;2.47;;;1.57;;
3068;SDS011;1545;51.728;8.796;2023-03-14T07:57:59;2.37;;;1.37;;
3068;SDS011;1545;51.728;8.796;2023-03-14T08:00:24;2.23;;;1.40;;
3068;SDS011;1545;51.728;8.796;2023-03-14T08:02:50;2.40;;;1.40;;
3068;SDS011;1545;51.728;8.796;2023-03-14T08:05:16;4.07;;;1.30;;
3068;SDS011;1545;51.728;8.796;2023-03-14T08:07:41;3.63;;;1.40;;
3068;SDS011;1545;51.728;8.796;2023-03-14T08:10:07;1.23;;;1.23;;
3068;SDS011;1545;51.728;8.796;2023-03-14T08:12:33;2.27;;;1.30;;
3068;SDS011;1545;51.728;8.796;2023-03-14T08:14:59;2.13;;;1.50;;
3068;SDS011;1545;51.728;8.796;2023-03-14T08:17:25;4.37;;;1.27;;
3068;SDS011;1545;51.728;8.796;2023-03-14T08:19:50;2.97;;;1.57;;
3068;SDS011;1545;51.728;8.796;2023-03-14T08:22:16;1.40;;;1.30;;
3068;SDS011;1545;51.728;8.796;2023-03-14T08:24:41;1.53;;;1.33;;
3068;SDS011;1545;51.728;8.796;2023-03-14T08:27:07;2.40;;;1.50;;
3068;SDS011;1545;51.728;8.796;2023-03-14T08:29:32;2.73;;;1.47;;
3068;SDS011;1545;51.728;8.796;2023-03-14T08:31:58;3.40;;;1.67;;
3068;SDS011;1545;51.728;8.796;2023-03-14T08:34:23;2.43;;;2.27;;
3068;SDS011;1545;51.728;8.796;2023-03-14T08:36:49;1.50;;;1.23;;
3068;SDS011;1545;51.728;8.796;2023-03-14T08:39:15;1.33;;;1.20;;
3068;SDS011;1545;51.728;8.796;2023-03-14T08:41:40;1.93;;;1.30;;
3068;SDS011;1545;51.728;8.796;2023-03-14T08:44:08;1.40;;;1.30;;
3068;SDS011;1545;51.728;8.796;2023-03-14T08:46:34;1.57;;;1.30;;
3068;SDS011;1545;51.728;8.796;2023-03-14T08:48:59;1.47;;;1.20;;
3068;SDS011;1545;51.728;8.796;2023-03-14T08:51:25;1.67;;;1.23;;
3068;SDS011;1545;51.728;8.796;2023-03-14T08:53:50;2.43;;;1.40;;
3068;SDS011;1545;51.728;8.796;2023-03-14T08:56:16;1.33;;;1.27;;
3068;SDS011;1545;51.728;8.796;2023-03-14T08:58:41;1.67;;;1.17;;
3068;SDS011;1545;51.728;8.796;2023-03-14T09:01:08;1.80;;;1.50;;
3068;SDS011;1545;51.728;8.796;2023-03-14T09:03:35;1.67;;;1.27;;
3068;SDS011;1545;51.728;8.796;2023-03-14T09:06:01;1.90;;;1.50;;
3068;SDS011;1545;51.728;8.796;2023-03-14T09:08:28;1.20;;;1.10;;
3068;SDS011;1545;51.728;8.796;2023-03-14T09:10:54;1.20;;;1.10;;
3068;SDS011;1545;51.728;8.796;2023-03-14T09:13:19;1.67;;;1.20;;
3068;SDS011;1545;51.728;8.796;2023-03-14T09:15:45;2.03;;;1.10;;
3068;SDS011;1545;51.728;8.796;2023-03-14T09:18:18;3.20;;;1.07;;
3068;SDS011;1545;51.728;8.796;2023-03-14T09:20:44;1.40;;;1.30;;
3068;SDS011;1545;51.728;8.796;2023-03-14T09:23:09;1.00;;;0.90;;
3068;SDS011;1545;51.728;8.796;2023-03-14T09:25:35;1.27;;;1.17;;
3068;SDS011;1545;51.728;8.796;2023-03-14T09:28:01;1.90;;;1.30;;
3068;SDS011;1545;51.728;8.796;2023-03-14T09:30:26;1.33;;;1.23;;
3068;SDS011;1545;51.728;8.796;2023-03-14T09:32:52;1.20;;;1.10;;
3068;SDS011;1545;51.728;8.796;2023-03-14T09:35:17;2.53;;;1.30;;
3068;SDS011;1545;51.728;8.796;2023-03-14T09:37:43;1.23;;;1.13;;
3068;SDS011;1545;51.728;8.796;2023-03-14T09:40:11;1.20;;;1.10;;
3068;SDS011;1545;51.728;8.796;2023-03-14T09:42:38;2.70;;;1.73;;
3068;SDS011;1545;51.728;8.796;2023-03-14T09:45:07;3.03;;;1.30;;
3068;SDS011;1545;51.728;8.796;2023-03-14T09:47:38;1.37;;;1.27;;
3068;SDS011;1545;51.728;8.796;2023-03-14T09:50:05;3.13;;;1.90;;
3068;SDS011;1545;51.728;8.796;2023-03-14T09:52:36;1.17;;;1.13;;
3068;SDS011;1545;51.728;8.796;2023-03-14T09:55:11;1.53;;;1.37;;
3068;SDS011;1545;51.728;8.796;2023-03-14T09:57:41;1.27;;;1.10;;
3068;SDS011;1545;51.728;8.796;2023-03-14T10:00:18;1.57;;;1.47;;
3068;SDS011;1545;51.728;8.796;2023-03-14T10:02:49;1.30;;;1.20;;
3068;SDS011;1545;51.728;8.796;2023-03-14T10:05:19;4.03;;;1.30;;
3068;SDS011;1545;51.728;8.796;2023-03-14T10:07:47;1.37;;;1.27;;
3068;SDS011;1545;51.728;8.796;2023-03-14T10:10:15;2.77;;;1.27;;
3068;SDS011;1545;51.728;8.796;2023-03-14T10:12:45;1.20;;;1.10;;
3068;SDS011;1545;51.728;8.796;2023-03-14T10:15:40;1.40;;;1.30;;
3068;SDS011;1545;51.728;8.796;2023-03-14T10:18:12;3.03;;;1.27;;
3068;SDS011;1545;51.728;8.796;2023-03-14T10:20:40;1.40;;;1.30;;
3068;SDS011;1545;51.728;8.796;2023-03-14T10:25:38;4.63;;;1.83;;
3068;SDS011;1545;51.728;8.796;2023-03-14T10:28:11;1.47;;;1.30;;
3068;SDS011;1545;51.728;8.796;2023-03-14T10:30:50;2.20;;;1.30;;
3068;SDS011;1545;51.728;8.796;2023-03-14T10:33:20;1.63;;;1.47;;
3068;SDS011;1545;51.728;8.796;2023-03-14T10:35:54;1.57;;;1.50;;
3068;SDS011;1545;51.728;8.796;2023-03-14T10:38:22;1.60;;;1.50;;
3068;SDS011;1545;51.728;8.796;2023-03-14T10:40:51;3.47;;;1.50;;
3068;SDS011;1545;51.728;8.796;2023-03-14T10:43:19;2.80;;;1.63;;
3068;SDS011;1545;51.728;8.796;2023-03-14T10:45:56;1.83;;;1.53;;
3068;SDS011;1545;51.728;8.796;2023-03-14T10:48:31;3.90;;;1.73;;
3068;SDS011;1545;51.728;8.796;2023-03-14T10:51:02;1.53;;;1.47;;
3068;SDS011;1545;51.728;8.796;2023-03-14T10:56:06;2.93;;;1.60;;
3068;SDS011;1545;51.728;8.796;2023-03-14T10:58:38;1.70;;;1.60;;
3068;SDS011;1545;51.728;8.796;2023-03-14T11:01:13;6.40;;;1.80;;
3068;SDS011;1545;51.728;8.796;2023-03-14T11:03:49;3.27;;;1.50;;
3068;SDS011;1545;51.728;8.796;2023-03-14T11:06:23;2.83;;;1.70;;
3068;SDS011;1545;51.728;8.796;2023-03-14T11:09:10;6.53;;;1.87;;
3068;SDS011;1545;51.728;8.796;2023-03-14T11:11:51;2.80;;;1.70;;
3068;SDS011;1545;51.728;8.796;2023-03-14T11:14:33;1.73;;;1.70;;
3068;SDS011;1545;51.728;8.796;2023-03-14T11:17:10;4.80;;;2.50;;
3068;SDS011;1545;51.728;8.796;2023-03-14T11:22:39;1.50;;;1.40;;
3068;SDS011;1545;51.728;8.796;2023-03-14T11:27:48;1.70;;;1.70;;
3068;SDS011;1545;51.728;8.796;2023-03-14T11:33:17;2.63;;;1.67;;
3068;SDS011;1545;51.728;8.796;2023-03-14T11:35:55;6.07;;;1.90;;
3068;SDS011;1545;51.728;8.796;2023-03-14T11:38:35;5.23;;;2.20;;
3068;SDS011;1545;51.728;8.796;2023-03-14T11:41:13;4.13;;;2.60;;
3068;SDS011;1545;51.728;8.796;2023-03-14T11:44:01;3.80;;;2.40;;
3068;SDS011;1545;51.728;8.796;2023-03-14T11:46:36;4.20;;;2.20;;
3068;SDS011;1545;51.728;8.796;2023-03-14T11:49:11;5.20;;;2.30;;
3068;SDS011;1545;51.728;8.796;2023-03-14T11:51:47;2.70;;;2.27;;
3068;SDS011;1545;51.728;8.796;2023-03-14T11:54:22;5.87;;;2.60;;
3068;SDS011;1545;51.728;8.796;2023-03-14T11:56:59;7.27;;;2.63;;
3068;SDS011;1545;51.728;8.796;2023-03-14T11:59:33;8.33;;;2.50;;
3068;SDS011;1545;51.728;8.796;2023-03-14T12:02:16;2.20;;;1.77;;
3068;SDS011;1545;51.728;8.796;2023-03-14T12:04:54;3.67;;;1.80;;
3068;SDS011;1545;51.728;8.796;2023-03-14T12:10:20;3.03;;;2.07;;
3068;SDS011;1545;51.728;8.796;2023-03-14T12:12:45;1.50;;;1.37;;
3068;SDS011;1545;51.728;8.796;2023-03-14T12:15:21;5.30;;;1.40;;
3068;SDS011;1545;51.728;8.796;2023-03-14T12:17:52;1.50;;;1.20;;
3068;SDS011;1545;51.728;8.796;2023-03-14T12:20:23;2.17;;;1.27;;
3068;SDS011;1545;51.728;8.796;2023-03-14T12:22:54;1.43;;;1.37;;
3068;SDS011;1545;51.728;8.796;2023-03-14T12:25:27;1.20;;;1.20;;
3068;SDS011;1545;51.728;8.796;2023-03-14T12:35:42;2.27;;;1.70;;
3068;SDS011;1545;51.728;8.796;2023-03-14T12:38:20;2.37;;;1.40;;
3068;SDS011;1545;51.728;8.796;2023-03-14T12:43:31;4.17;;;1.70;;
3068;SDS011;1545;51.728;8.796;2023-03-14T12:48:45;6.00;;;2.83;;
3068;SDS011;1545;51.728;8.796;2023-03-14T12:51:12;2.63;;;1.47;;
3068;SDS011;1545;51.728;8.796;2023-03-14T13:04:33;6.37;;;2.37;;
3068;SDS011;1545;51.728;8.796;2023-03-14T13:07:11;9.87;;;2.70;;
3068;SDS011;1545;51.728;8.796;2023-03-14T13:12:23;9.07;;;2.63;;
3068;SDS011;1545;51.728;8.796;2023-03-14T13:14:56;11.50;;;2.90;;
3068;SDS011;1545;51.728;8.796;2023-03-14T13:17:27;12.83;;;3.07;;
3068;SDS011;1545;51.728;8.796;2023-03-14T13:19:56;11.80;;;3.03;;
3068;SDS011;1545;51.728;8.796;2023-03-14T13:22:27;7.50;;;2.50;;
3068;SDS011;1545;51.728;8.796;2023-03-14T13:25:02;13.90;;;3.33;;
3068;SDS011;1545;51.728;8.796;2023-03-14T13:27:33;10.93;;;3.10;;
3068;SDS011;1545;51.728;8.796;2023-03-14T13:30:04;9.00;;;2.57;;
3068;SDS011;1545;51.728;8.796;2023-03-14T13:32:40;14.60;;;2.67;;
3068;SDS011;1545;51.728;8.796;2023-03-14T13:35:19;16.63;;;3.87;;
3068;SDS011;1545;51.728;8.796;2023-03-14T13:37:45;12.87;;;2.80;;
3068;SDS011;1545;51.728;8.796;2023-03-14T13:40:20;17.87;;;3.37;;
3068;SDS011;1545;51.728;8.796;2023-03-14T13:42:59;16.90;;;3.83;;
3068;SDS011;1545;51.728;8.796;2023-03-14T13:45:30;16.10;;;3.70;;
3068;SDS011;1545;51.728;8.796;2023-03-14T13:47:56;12.03;;;2.97;;
3068;SDS011;1545;51.728;8.796;2023-03-14T13:50:21;19.50;;;3.67;;
3068;SDS011;1545;51.728;8.796;2023-03-14T13:52:47;13.63;;;3.70;;
3068;SDS011;1545;51.728;8.796;2023-03-14T13:55:20;13.90;;;3.17;;
3068;SDS011;1545;51.728;8.796;2023-03-14T13:57:46;15.27;;;3.93;;
3068;SDS011;1545;51.728;8.796;2023-03-14T14:00:21;16.03;;;3.90;;
3068;SDS011;1545;51.728;8.796;2023-03-14T14:02:52;10.50;;;3.50;;
3068;SDS011;1545;51.728;8.796;2023-03-14T14:05:19;15.80;;;3.90;;
3068;SDS011;1545;51.728;8.796;2023-03-14T14:07:45;30.70;;;4.97;;
3068;SDS011;1545;51.728;8.796;2023-03-14T14:10:11;21.90;;;4.40;;
3068;SDS011;1545;51.728;8.796;2023-03-14T14:12:42;31.80;;;5.27;;
3068;SDS011;1545;51.728;8.796;2023-03-14T14:15:22;29.17;;;4.50;;
3068;SDS011;1545;51.728;8.796;2023-03-14T14:17:54;27.40;;;4.57;;
3068;SDS011;1545;51.728;8.796;2023-03-14T14:22:56;16.13;;;3.40;;
3068;SDS011;1545;51.728;8.796;2023-03-14T14:25:22;30.17;;;4.10;;
3068;SDS011;1545;51.728;8.796;2023-03-14T14:27:48;28.53;;;4.40;;
3068;SDS011;1545;51.728;8.796;2023-03-14T14:32:44;29.20;;;3.87;;
3068;SDS011;1545;51.728;8.796;2023-03-14T14:35:21;22.37;;;4.83;;
3068;SDS011;1545;51.728;8.796;2023-03-14T14:37:51;24.67;;;4.40;;
3068;SDS011;1545;51.728;8.796;2023-03-14T14:40:21;25.67;;;4.83;;
3068;SDS011;1545;51.728;8.796;2023-03-14T14:42:49;22.53;;;5.20;;
3068;SDS011;1545;51.728;8.796;2023-03-14T14:45:22;28.33;;;5.30;;
3068;SDS011;1545;51.728;8.796;2023-03-14T14:47:56;36.70;;;5.37;;
3068;SDS011;1545;51.728;8.796;2023-03-14T14:50:32;31.00;;;5.53;;
3068;SDS011;1545;51.728;8.796;2023-03-14T14:53:19;29.73;;;5.60;;
3068;SDS011;1545;51.728;8.796;2023-03-14T14:55:55;25.90;;;5.47;;
3068;SDS011;1545;51.728;8.796;2023-03-14T14:58:27;29.03;;;5.37;;
3068;SDS011;1545;51.728;8.796;2023-03-14T15:01:05;28.20;;;4.60;;
3068;SDS011;1545;51.728;8.796;2023-03-14T15:03:43;26.60;;;4.93;;
3068;SDS011;1545;51.728;8.796;2023-03-14T15:06:11;23.80;;;5.10;;
3068;SDS011;1545;51.728;8.796;2023-03-14T15:08:38;24.80;;;5.07;;
3068;SDS011;1545;51.728;8.796;2023-03-14T15:11:04;29.90;;;5.07;;
3068;SDS011;1545;51.728;8.796;2023-03-14T15:13:30;27.13;;;4.87;;
3068;SDS011;1545;51.728;8.796;2023-03-14T15:15:56;30.00;;;4.93;;
3068;SDS011;1545;51.728;8.796;2023-03-14T15:18:22;31.57;;;4.73;;
3068;SDS011;1545;51.728;8.796;2023-03-14T15:20:49;30.97;;;4.70;;
3068;SDS011;1545;51.728;8.796;2023-03-14T15:23:15;35.03;;;5.27;;
3068;SDS011;1545;51.728;8.796;2023-03-14T15:25:42;23.57;;;4.93;;
3068;SDS011;1545;51.728;8.796;2023-03-14T15:30:38;21.93;;;4.60;;
3068;SDS011;1545;51.728;8.796;2023-03-14T15:33:03;17.63;;;4.07;;
3068;SDS011;1545;51.728;8.796;2023-03-14T15:35:29;21.30;;;3.73;;
3068;SDS011;1545;51.728;8.796;2023-03-14T15:37:54;26.33;;;4.60;;
3068;SDS011;1545;51.728;8.796;2023-03-14T15:40:20;22.57;;;3.63;;
3068;SDS011;1545;51.728;8.796;2023-03-14T15:42:48;20.67;;;4.10;;
3068;SDS011;1545;51.728;8.796;2023-03-14T15:45:14;40.53;;;4.77;;
3068;SDS011;1545;51.728;8.796;2023-03-14T15:47:39;15.70;;;3.90;;
3068;SDS011;1545;51.728;8.796;2023-03-14T15:50:05;27.13;;;4.20;;
3068;SDS011;1545;51.728;8.796;2023-03-14T15:52:34;19.77;;;3.60;;
3068;SDS011;1545;51.728;8.796;2023-03-14T15:55:00;19.33;;;3.87;;
3068;SDS011;1545;51.728;8.796;2023-03-14T15:57:25;20.50;;;3.50;;
3068;SDS011;1545;51.728;8.796;2023-03-14T15:59:51;17.20;;;3.60;;
3068;SDS011;1545;51.728;8.796;2023-03-14T16:02:16;22.60;;;4.07;;
3068;SDS011;1545;51.728;8.796;2023-03-14T16:04:42;13.93;;;4.03;;
3068;SDS011;1545;51.728;8.796;2023-03-14T16:07:07;15.33;;;3.43;;
3068;SDS011;1545;51.728;8.796;2023-03-14T16:09:33;21.80;;;4.00;;